createdAt,value
2022-09-24T00:05:15.158Z,100216.69
2022-09-24T00:12:02.016Z,100154.66
2022-09-24T00:18:50.073Z,100198.38
2022-09-24T00:25:48.453Z,100212.44
2022-09-24T00:32:33.813Z,100202.06
2022-09-24T00:39:21.714Z,100203.00
2022-09-24T00:46:17.253Z,100205.69
2022-09-24T00:53:07.779Z,100188.69
2022-09-24T00:59:56.419Z,100187.44
2022-09-24T01:06:41.928Z,100180.63
2022-09-24T01:13:52.599Z,100155.59
2022-09-24T01:21:38.724Z,100147.28
2022-09-24T01:28:39.947Z,100143.66
2022-09-24T01:35:32.538Z,100142.06
2022-09-24T01:42:22.093Z,100103.72
2022-09-24T01:49:07.720Z,100154.03
2022-09-24T01:56:05.211Z,100139.59
2022-09-24T02:02:58.265Z,100138.69
2022-09-24T02:09:46.776Z,100132.34
2022-09-24T02:16:43.442Z,100132.50
2022-09-24T02:23:31.882Z,100120.75
2022-09-24T02:30:17.994Z,100120.88
2022-09-24T02:37:10.814Z,100120.78
2022-09-24T02:43:56.675Z,100117.63
2022-09-24T03:04:33.617Z,100122.47
2022-09-24T03:11:19.123Z,100130.78
2022-09-24T03:18:04.546Z,100130.34
2022-09-24T03:24:53.969Z,100109.69
2022-09-24T03:31:39.440Z,100121.91
2022-09-24T03:38:24.816Z,100024.59
2022-09-24T03:45:14.307Z,100091.78
2022-09-24T03:51:59.654Z,100093.84
2022-09-24T03:58:48.064Z,100079.19
2022-09-24T04:05:36.788Z,100070.06
2022-09-24T04:12:23.064Z,100080.63
2022-09-24T04:19:08.432Z,100070.06
2022-09-24T04:25:56.998Z,100077.84
2022-09-24T04:32:42.442Z,100084.22
2022-09-24T04:39:27.945Z,100080.44
2022-09-24T04:46:18.254Z,100075.91
2022-09-24T04:53:05.092Z,100020.59
2022-09-24T04:59:50.260Z,100074.34
2022-09-24T05:06:38.225Z,100071.56
2022-09-24T05:13:23.737Z,100085.16
2022-09-24T05:20:11.305Z,100064.59
2022-09-24T05:27:14.433Z,100086.16
2022-09-24T05:33:59.972Z,100087.09
2022-09-24T05:40:52.298Z,100033.34
2022-09-24T05:47:40.306Z,100100.31
2022-09-24T05:54:25.978Z,100099.91
2022-09-24T06:01:11.449Z,100096.81
2022-09-24T06:07:59.419Z,100096.22
2022-09-24T06:14:45.229Z,100115.38
2022-09-24T06:21:30.650Z,100110.56
2022-09-24T06:28:18.605Z,100103.78
2022-09-24T06:35:04.032Z,100115.47
2022-09-24T06:41:50.789Z,100123.94
2022-09-24T06:48:39.731Z,100118.50
2022-09-24T06:55:25.474Z,100125.16
2022-09-24T07:02:12.762Z,100125.75
2022-09-24T07:09:01.905Z,100092.72
2022-09-24T07:15:48.575Z,100119.31
2022-09-24T07:22:33.907Z,100135.75
2022-09-24T07:29:22.129Z,100088.91
2022-09-24T07:36:08.992Z,100152.91
2022-09-24T07:42:55.241Z,100149.25
2022-09-24T07:49:43.260Z,100145.19
2022-09-24T07:56:28.993Z,100155.81
2022-09-24T08:03:15.031Z,100160.44
2022-09-24T08:10:03.503Z,100155.81
2022-09-24T08:16:48.830Z,100171.22
2022-09-24T08:23:36.396Z,100169.47
2022-09-24T08:30:24.776Z,100160.34
2022-09-24T08:37:10.356Z,100151.66
2022-09-24T08:44:05.386Z,100144.81
2022-09-24T08:51:00.872Z,100137.53
2022-09-24T08:58:01.047Z,100151.59
2022-09-24T09:05:03.248Z,100148.06
2022-09-24T09:11:55.965Z,100153.81
2022-09-24T09:18:46.068Z,100146.53
2022-09-24T09:25:38.474Z,100148.78
2022-09-24T09:32:43.051Z,100163.78
2022-09-24T09:39:42.835Z,100086.78
2022-09-24T09:46:36.183Z,100156.75
2022-09-24T09:53:26.746Z,100056.25
2022-09-24T10:00:29.429Z,100129.09
2022-09-24T10:07:17.941Z,100123.22
2022-09-24T10:14:15.082Z,100054.03
2022-09-24T10:21:02.654Z,100140.16
2022-09-24T10:27:48.230Z,100141.66
2022-09-24T10:34:36.809Z,100127.53
2022-09-24T10:41:30.941Z,100119.06
2022-09-24T10:48:24.153Z,100117.78
2022-09-24T10:55:32.312Z,100107.81
2022-09-24T11:03:00.333Z,100113.72
2022-09-24T11:09:54.677Z,100105.25
2022-09-24T11:17:16.662Z,100093.91
2022-09-24T11:24:30.195Z,100072.19
2022-09-24T11:31:28.574Z,100065.09
2022-09-24T11:38:22.771Z,100074.16
2022-09-24T11:45:44.343Z,100085.56
2022-09-24T11:52:37.926Z,99965.31
2022-09-24T11:59:39.237Z,100071.53
2022-09-24T12:06:33.689Z,100056.53
2022-09-24T12:13:23.026Z,100049.22
2022-09-24T12:20:21.233Z,100048.41
2022-09-24T12:27:15.120Z,99965.97
2022-09-24T12:34:08.411Z,100052.34
2022-09-24T12:41:24.414Z,100027.47
2022-09-24T12:48:16.131Z,100029.03
2022-09-24T12:55:04.949Z,100015.03
2022-09-24T13:01:53.063Z,100020.22
2022-09-24T13:08:43.931Z,99944.72
2022-09-24T13:15:42.727Z,100023.44
2022-09-24T13:22:34.817Z,100016.53
2022-09-24T13:29:29.440Z,100017.09
2022-09-24T13:36:20.137Z,100014.31
2022-09-24T13:43:17.518Z,100012.13
2022-09-24T13:50:15.236Z,99983.19
2022-09-24T13:57:05.650Z,100010.63
2022-09-24T14:04:02.881Z,100013.34
2022-09-24T14:10:51.027Z,100008.94
2022-09-24T14:17:36.439Z,99963.88
2022-09-24T14:24:28.329Z,100003.53
2022-09-24T14:31:13.827Z,100000.66
2022-09-24T14:38:08.783Z,99988.38
2022-09-24T14:44:57.974Z,99988.09
2022-09-24T14:51:43.351Z,99984.66
2022-09-24T14:58:39.036Z,99985.56
2022-09-24T15:05:31.292Z,99981.50
2022-09-24T15:12:26.632Z,99971.38
2022-09-24T15:19:22.289Z,99976.06
2022-09-24T15:26:10.406Z,99975.22
2022-09-24T15:32:56.017Z,99980.38
2022-09-24T15:39:48.469Z,99981.47
2022-09-24T15:46:38.315Z,99969.06
2022-09-24T15:53:27.536Z,99940.94
2022-09-24T16:00:18.377Z,99976.59
2022-09-24T16:07:06.407Z,99966.72
2022-09-24T16:13:53.554Z,99966.66
2022-09-24T16:20:43.525Z,99967.91
2022-09-24T16:27:31.629Z,99980.38
2022-09-24T16:34:17.141Z,99997.03
2022-09-24T16:41:03.270Z,99996.44
2022-09-24T16:47:51.006Z,99988.81
2022-09-24T16:54:36.814Z,100003.19
2022-09-24T17:01:24.879Z,99998.47
2022-09-24T17:08:13.121Z,100000.59
2022-09-24T17:15:02.155Z,100003.06
2022-09-24T17:21:50.273Z,99951.75
2022-09-24T17:28:40.026Z,99999.53
2022-09-24T17:35:25.389Z,100003.56
2022-09-24T17:42:10.864Z,100009.53
2022-09-24T17:49:02.724Z,100008.75
2022-09-24T17:55:52.132Z,100006.44
2022-09-24T18:02:37.556Z,100017.53
2022-09-24T18:09:25.524Z,99982.94
2022-09-24T18:16:14.095Z,100021.16
2022-09-24T18:22:59.540Z,100055.72
2022-09-24T18:29:47.541Z,100037.22
2022-09-24T18:36:33.133Z,100088.09
2022-09-24T18:43:18.501Z,100084.72
2022-09-24T18:50:06.813Z,100085.91
2022-09-24T18:56:52.419Z,100083.66
2022-09-24T19:03:39.748Z,100073.41
2022-09-24T19:10:27.730Z,100062.44
2022-09-24T19:17:13.129Z,100077.25
2022-09-24T19:24:01.040Z,100065.00
2022-09-24T19:30:52.751Z,100055.47
2022-09-24T19:37:38.506Z,100041.50
2022-09-24T19:44:24.184Z,100093.81
2022-09-24T19:51:16.387Z,100091.72
2022-09-24T19:58:02.388Z,100090.97
2022-09-24T20:04:47.988Z,100081.16
2022-09-24T20:11:36.539Z,100016.78
2022-09-24T20:18:21.951Z,100084.13
2022-09-24T20:25:08.763Z,100090.25
2022-09-24T20:31:58.056Z,100098.53
2022-09-24T20:38:43.944Z,100109.31
2022-09-24T20:45:29.435Z,100132.00
2022-09-24T20:52:17.481Z,100133.09
2022-09-24T20:59:03.669Z,100154.84
2022-09-24T21:05:49.015Z,100159.03
2022-09-24T21:12:37.043Z,100166.66
2022-09-24T21:19:22.552Z,100180.19
2022-09-24T21:26:16.800Z,100176.91
2022-09-24T21:33:04.802Z,100158.06
2022-09-24T21:39:50.173Z,100152.72
2022-09-24T21:46:37.454Z,100097.72
2022-09-24T21:53:25.553Z,100144.47
2022-09-24T22:00:13.701Z,100134.88
2022-09-24T22:06:59.103Z,100140.81
2022-09-24T22:13:47.955Z,100135.53
2022-09-24T22:20:33.922Z,100137.84
2022-09-24T22:27:19.489Z,100118.59
2022-09-24T22:34:20.184Z,100117.13
2022-09-24T22:41:08.177Z,100044.91
2022-09-24T22:47:55.285Z,100121.91
2022-09-24T22:54:43.249Z,100111.91
2022-09-24T23:01:31.767Z,100113.97
2022-09-24T23:08:17.339Z,100116.50
2022-09-24T23:15:05.579Z,100019.56
2022-09-24T23:21:51.003Z,100108.59
2022-09-24T23:28:37.955Z,100105.38
2022-09-24T23:35:25.941Z,100094.88
2022-09-24T23:42:11.833Z,100001.56
2022-09-24T23:48:57.352Z,100102.84
2022-09-24T23:55:49.501Z,100094.44
